Kobrin, Belarus
Current Conditions -  °F | °C
As of 5:00 AM on Thursday 27 Nov 2014 (Local Time) from UMBB Reporting Station
Haze Haze  
Wind Chill: 18°   Ceiling: 700
Heat Index: 27°   Visibility: 1.4mi
Dew Point: 25°   Wind: 9mph
Humidity: 93%   Direction: 90°E
Pressure: 30.3"   Gusts: NA
Location:  52.21°N, 24.36°E
Report Text: UMBB 270300Z 09004MPS 2300 BR OVC007 M03/M04 Q1026 NOSIG
Loading
Personal Weather Stations






























Interactive Weather Map New forecast layout! Learn more

10-Day Weather Forecast

Advertisements
Track Severe Weather on mobile